Time;durP1;ratioP1;P1;durP2;ratioP2;P2;SDS_P1;SDS_P2;PMS_P1;PMS_P2;Temp;Humidity;BMP_temperature;BMP_pressure;BME280_temperature;BME280_humidity;BME280_pressure;Samples;Min_cycle;Max_cycle;Signal;HPM_P1;HPM_P2
2023/03/12 00:02:02;;;;;;;6.10;2.70;;;1.40;99.90;;;;;;5038723;28;20456;-65
2023/03/12 00:04:31;;;;;;;6.60;2.47;;;1.40;99.90;;;;;;5039645;28;20457;-64
2023/03/12 00:06:57;;;;;;;5.30;2.30;;;1.40;99.90;;;;;;5040083;28;20460;-65
2023/03/12 00:09:26;;;;;;;6.50;2.40;;;1.40;99.90;;;;;;5039431;28;20551;-65
2023/03/12 00:11:53;;;;;;;3.93;2.10;;;1.40;99.90;;;;;;5040104;28;20480;-65
2023/03/12 00:14:19;;;;;;;4.30;1.90;;;1.40;99.90;;;;;;5040056;28;20974;-66
2023/03/12 00:16:46;;;;;;;6.63;2.83;;;1.40;99.90;;;;;;5039638;28;20539;-65
2023/03/12 00:19:13;;;;;;;4.23;2.43;;;1.40;99.90;;;;;;5038536;28;20452;-65
2023/03/12 00:21:40;;;;;;;3.70;2.70;;;1.40;99.90;;;;;;5037904;28;20854;-64
2023/03/12 00:24:08;;;;;;;3.40;2.50;;;1.40;99.90;;;;;;5038181;28;20460;-65
2023/03/12 00:26:36;;;;;;;4.50;2.70;;;1.40;99.90;;;;;;5038561;28;20462;-65
2023/03/12 00:29:03;;;;;;;4.80;2.30;;;1.40;99.90;;;;;;5038186;28;20551;-65
2023/03/12 00:31:32;;;;;;;7.20;2.97;;;1.40;99.90;;;;;;5038316;28;20575;-65
2023/03/12 00:34:00;;;;;;;3.83;2.30;;;1.40;99.90;;;;;;5038522;28;20456;-66
2023/03/12 00:36:30;;;;;;;5.77;2.60;;;1.40;99.90;;;;;;5038106;28;20561;-66
2023/03/12 00:38:57;;;;;;;4.63;2.60;;;1.40;99.90;;;;;;5038496;28;20456;-65
2023/03/12 00:41:25;;;;;;;7.70;3.07;;;1.40;99.90;;;;;;5041048;28;20449;-64
2023/03/12 00:43:53;;;;;;;5.27;3.00;;;1.40;99.90;;;;;;5043524;28;21036;-65
2023/03/12 00:46:21;;;;;;;3.07;2.40;;;1.40;99.90;;;;;;5038038;28;20550;-64
2023/03/12 00:48:48;;;;;;;3.70;2.53;;;1.40;99.90;;;;;;5038991;28;20455;-65
2023/03/12 00:51:15;;;;;;;3.33;2.60;;;1.50;99.90;;;;;;5038056;28;20480;-65
2023/03/12 00:53:42;;;;;;;6.60;3.00;;;1.50;99.90;;;;;;5037903;28;20567;-63
2023/03/12 00:56:08;;;;;;;3.47;2.70;;;1.50;99.90;;;;;;5038424;28;20524;-65
2023/03/12 00:58:35;;;;;;;3.40;2.73;;;1.50;99.90;;;;;;5037786;28;20547;-65
2023/03/12 01:01:05;;;;;;;4.30;2.50;;;1.60;99.90;;;;;;5037926;28;20460;-65
2023/03/12 01:03:31;;;;;;;6.40;2.33;;;1.60;99.90;;;;;;5037387;28;20555;-65
2023/03/12 01:05:58;;;;;;;4.40;2.37;;;1.60;99.90;;;;;;5037173;28;20466;-66
2023/03/12 01:08:25;;;;;;;3.10;2.23;;;1.70;99.90;;;;;;5038285;28;20864;-65
2023/03/12 01:10:52;;;;;;;2.73;2.10;;;1.70;99.90;;;;;;5038243;28;20538;-65
2023/03/12 01:13:19;;;;;;;3.10;2.47;;;1.70;99.90;;;;;;5037709;28;20789;-65
2023/03/12 01:15:46;;;;;;;6.60;2.20;;;1.70;99.90;;;;;;5036254;28;20498;-65
2023/03/12 01:18:14;;;;;;;8.97;2.07;;;1.80;99.90;;;;;;5036455;28;20924;-64
2023/03/12 01:20:41;;;;;;;7.53;3.13;;;1.70;99.90;;;;;;5036878;28;20459;-66
2023/03/12 01:23:09;;;;;;;4.20;2.30;;;1.70;99.90;;;;;;5036468;28;20475;-65
2023/03/12 01:25:36;;;;;;;4.03;3.30;;;1.70;99.90;;;;;;5036480;28;20808;-65
2023/03/12 01:28:03;;;;;;;4.43;2.47;;;1.70;99.90;;;;;;5036692;28;20976;-65
2023/03/12 01:30:30;;;;;;;4.63;2.17;;;1.70;99.90;;;;;;5037365;28;20452;-66
2023/03/12 01:32:57;;;;;;;5.67;2.90;;;1.70;99.90;;;;;;5037414;28;20793;-65
2023/03/12 01:35:26;;;;;;;5.07;2.47;;;1.80;99.90;;;;;;5036980;28;20853;-66
2023/03/12 01:37:54;;;;;;;6.27;2.80;;;1.80;99.90;;;;;;5036956;28;20566;-64
2023/03/12 01:40:26;;;;;;;3.00;2.70;;;1.70;99.90;;;;;;5037025;28;20921;-65
2023/03/12 01:42:54;;;;;;;3.40;2.50;;;1.80;99.90;;;;;;5036893;28;20448;-66
2023/03/12 01:46:12;;;;;;;3.07;2.60;;;1.80;99.90;;;;;;5036384;28;20556;-66
2023/03/12 01:48:43;;;;;;;3.27;2.97;;;1.80;99.90;;;;;;4956627;29;20565;-66
2023/03/12 01:51:13;;;;;;;6.33;3.10;;;1.80;99.90;;;;;;4955886;29;20508;-65
2023/03/12 01:53:43;;;;;;;5.10;2.20;;;1.80;99.90;;;;;;4995237;28;20950;-65
2023/03/12 01:56:10;;;;;;;4.50;2.73;;;1.70;99.90;;;;;;5037701;28;20650;-65
2023/03/12 01:58:40;;;;;;;4.87;2.90;;;1.80;99.90;;;;;;5039192;28;20460;-64
2023/03/12 02:01:07;;;;;;;7.33;2.97;;;1.70;99.90;;;;;;5038240;28;20484;-65
2023/03/12 02:03:35;;;;;;;3.53;2.27;;;1.80;99.90;;;;;;5038115;28;20471;-65
2023/03/12 02:06:06;;;;;;;4.53;2.77;;;1.70;99.90;;;;;;5038774;28;20456;-65
2023/03/12 02:08:37;;;;;;;3.43;2.70;;;1.80;99.90;;;;;;5036753;28;20759;-65
2023/03/12 02:11:05;;;;;;;2.37;2.07;;;1.80;99.90;;;;;;5035876;28;20474;-65
2023/03/12 02:13:32;;;;;;;6.50;3.33;;;1.90;99.90;;;;;;5036948;28;20456;-66
2023/03/12 02:15:59;;;;;;;3.50;2.40;;;1.80;99.90;;;;;;5037308;28;20515;-65
2023/03/12 02:18:27;;;;;;;6.60;2.97;;;1.80;99.90;;;;;;5037275;28;20917;-63
2023/03/12 02:21:01;;;;;;;4.43;3.17;;;1.80;99.90;;;;;;5036274;28;20460;-65
2023/03/12 02:23:33;;;;;;;3.10;2.37;;;1.80;99.90;;;;;;5035520;28;20783;-64
2023/03/12 02:26:03;;;;;;;4.90;3.40;;;1.70;99.90;;;;;;5034694;28;20924;-63
2023/03/12 02:28:32;;;;;;;4.63;3.40;;;1.70;99.90;;;;;;5035148;28;20787;-63
2023/03/12 02:31:03;;;;;;;5.20;2.67;;;1.60;99.90;;;;;;5034884;28;20452;-64
2023/03/12 02:33:29;;;;;;;5.37;3.17;;;1.60;99.90;;;;;;5039188;28;20452;-65
2023/03/12 02:35:56;;;;;;;7.13;3.10;;;1.60;99.90;;;;;;5041618;28;20466;-65
2023/03/12 02:38:36;;;;;;;6.80;3.37;;;1.60;99.90;;;;;;5041863;28;21008;-65
2023/03/12 02:41:11;;;;;;;5.10;2.50;;;1.50;99.90;;;;;;5042443;28;20787;-65
2023/03/12 02:43:39;;;;;;;4.43;2.23;;;1.50;99.90;;;;;;5041755;28;20474;-65
2023/03/12 02:46:07;;;;;;;4.20;2.87;;;1.50;99.90;;;;;;5042332;28;20456;-65
2023/03/12 02:48:34;;;;;;;3.97;2.80;;;1.40;99.90;;;;;;5041566;28;20550;-65
2023/03/12 02:51:02;;;;;;;8.33;3.27;;;1.40;99.90;;;;;;5041198;28;20496;-65
2023/03/12 02:53:29;;;;;;;3.07;2.70;;;1.40;99.90;;;;;;5041602;28;20478;-65
2023/03/12 02:55:55;;;;;;;3.80;3.03;;;1.40;99.90;;;;;;5041353;28;20544;-65
2023/03/12 02:58:24;;;;;;;9.63;3.30;;;1.30;99.90;;;;;;5041544;28;20491;-65
2023/03/12 03:00:51;;;;;;;5.57;2.67;;;1.20;99.90;;;;;;5057570;28;20455;-65
2023/03/12 03:03:18;;;;;;;8.67;3.80;;;1.20;99.90;;;;;;5061345;28;20912;-65
2023/03/12 03:05:45;;;;;;;7.13;3.57;;;1.20;99.90;;;;;;5061759;28;20447;-65
2023/03/12 03:08:12;;;;;;;6.17;3.60;;;1.20;99.90;;;;;;5062554;28;20512;-64
2023/03/12 03:10:39;;;;;;;8.17;2.90;;;1.20;99.90;;;;;;5062584;28;20450;-66
2023/03/12 03:13:06;;;;;;;5.13;3.30;;;1.10;99.90;;;;;;5063238;28;20493;-65
2023/03/12 03:15:35;;;;;;;7.13;3.00;;;1.10;99.90;;;;;;5062170;28;20586;-65
2023/03/12 03:18:03;;;;;;;5.80;4.23;;;1.10;99.90;;;;;;5062268;28;20558;-65
2023/03/12 03:20:30;;;;;;;10.60;3.53;;;1.10;99.90;;;;;;5062483;28;20463;-65
2023/03/12 03:22:57;;;;;;;5.93;3.57;;;1.00;99.90;;;;;;5063114;28;20454;-65
2023/03/12 03:25:24;;;;;;;3.37;3.07;;;1.00;99.90;;;;;;5062838;28;20983;-64
2023/03/12 03:27:51;;;;;;;3.67;3.00;;;1.00;99.90;;;;;;5062411;28;20529;-64
2023/03/12 03:30:20;;;;;;;5.33;3.23;;;0.90;99.90;;;;;;5062733;28;20534;-65
2023/03/12 03:32:48;;;;;;;5.13;2.90;;;0.80;99.90;;;;;;5062651;28;20512;-64
2023/03/12 03:35:15;;;;;;;5.77;3.73;;;0.80;99.90;;;;;;5062091;28;20494;-65
2023/03/12 03:37:42;;;;;;;5.40;3.00;;;0.80;99.90;;;;;;5062855;28;20455;-65
2023/03/12 03:40:11;;;;;;;4.43;3.20;;;0.90;99.90;;;;;;5046704;28;20451;-65
2023/03/12 03:42:38;;;;;;;9.30;3.13;;;0.80;99.90;;;;;;5043752;28;20460;-65
2023/03/12 03:45:08;;;;;;;7.20;2.70;;;0.80;99.90;;;;;;5040037;28;20452;-65
2023/03/12 03:47:34;;;;;;;5.23;2.60;;;0.80;99.90;;;;;;5039405;28;20547;-65
2023/03/12 03:50:04;;;;;;;5.90;4.00;;;0.80;99.90;;;;;;5040095;28;20802;-64
2023/03/12 03:52:31;;;;;;;13.93;3.20;;;0.80;99.90;;;;;;5040002;28;20479;-65
2023/03/12 03:54:58;;;;;;;7.13;3.50;;;0.80;99.90;;;;;;5039301;28;20547;-65
2023/03/12 03:57:25;;;;;;;5.50;3.47;;;0.80;99.90;;;;;;5039202;28;20460;-65
2023/03/12 03:59:52;;;;;;;6.90;3.30;;;0.70;99.90;;;;;;5039687;28;20535;-65
2023/03/12 04:02:19;;;;;;;9.83;3.43;;;0.80;99.90;;;;;;5039772;28;20547;-65
2023/03/12 04:04:45;;;;;;;6.97;3.30;;;0.80;99.90;;;;;;5039391;28;20456;-65
2023/03/12 04:07:14;;;;;;;8.93;3.53;;;0.70;99.90;;;;;;5040316;28;20532;-65
2023/03/12 04:09:40;;;;;;;9.07;4.20;;;0.70;99.90;;;;;;5041455;28;20453;-65
2023/03/12 04:12:08;;;;;;;4.53;3.50;;;0.80;99.90;;;;;;5041969;28;20511;-65
2023/03/12 04:14:35;;;;;;;9.57;3.87;;;0.80;99.90;;;;;;5041848;28;20567;-65
2023/03/12 04:17:01;;;;;;;5.30;3.10;;;0.80;99.90;;;;;;5041317;28;20485;-64
2023/03/12 04:19:28;;;;;;;5.40;3.93;;;0.80;99.90;;;;;;5040999;28;20484;-65
2023/03/12 04:21:55;;;;;;;3.63;3.33;;;0.80;99.90;;;;;;5040056;28;20456;-65
2023/03/12 04:24:23;;;;;;;4.03;3.50;;;0.70;99.90;;;;;;5040696;28;21000;-64
2023/03/12 04:26:51;;;;;;;7.43;3.57;;;0.70;99.90;;;;;;5040945;28;20471;-65
2023/03/12 04:29:18;;;;;;;10.80;4.20;;;0.70;99.90;;;;;;5040937;28;20460;-64
2023/03/12 04:31:45;;;;;;;11.67;4.20;;;0.70;99.90;;;;;;5040157;28;20488;-65
2023/03/12 04:34:12;;;;;;;6.20;4.00;;;0.60;99.90;;;;;;5039995;28;20927;-65
2023/03/12 04:36:39;;;;;;;5.20;4.10;;;0.60;99.90;;;;;;5039071;28;20514;-64
2023/03/12 04:39:07;;;;;;;7.90;4.80;;;0.60;99.90;;;;;;5040898;28;20547;-65
2023/03/12 04:41:35;;;;;;;7.13;3.97;;;0.60;99.90;;;;;;5037848;28;20460;-64
2023/03/12 04:44:03;;;;;;;7.50;5.07;;;0.60;99.90;;;;;;5038326;28;20546;-65
2023/03/12 04:46:30;;;;;;;6.50;4.47;;;0.60;99.90;;;;;;5038770;28;20466;-63
2023/03/12 04:48:57;;;;;;;7.27;5.17;;;0.60;99.90;;;;;;5039300;28;20798;-65
2023/03/12 04:51:24;;;;;;;8.47;5.60;;;0.60;99.90;;;;;;5037535;28;20518;-65
2023/03/12 04:53:51;;;;;;;6.10;4.67;;;0.60;99.90;;;;;;5037514;28;20484;-65
2023/03/12 04:56:18;;;;;;;8.97;5.47;;;0.60;99.90;;;;;;5036592;28;20920;-65
2023/03/12 04:58:47;;;;;;;8.13;5.40;;;0.70;99.90;;;;;;5036768;28;20471;-65
2023/03/12 05:01:23;;;;;;;7.50;5.37;;;0.70;99.90;;;;;;5036602;28;20455;-65
2023/03/12 05:03:49;;;;;;;7.87;5.00;;;0.70;99.90;;;;;;5036678;28;20506;-65
2023/03/12 05:06:16;;;;;;;16.17;5.90;;;0.60;99.90;;;;;;5036192;28;20456;-65
2023/03/12 05:08:44;;;;;;;6.43;5.73;;;0.60;99.90;;;;;;5037165;28;20506;-65
2023/03/12 05:11:10;;;;;;;8.53;5.00;;;0.60;99.90;;;;;;5037060;28;20824;-65
2023/03/12 05:13:37;;;;;;;9.50;5.80;;;0.60;99.90;;;;;;5037187;28;20575;-65
2023/03/12 05:16:06;;;;;;;6.87;5.17;;;0.60;99.90;;;;;;5036704;28;20575;-65
2023/03/12 05:18:34;;;;;;;8.50;5.40;;;0.60;99.90;;;;;;5035992;28;20959;-65
2023/03/12 05:21:02;;;;;;;11.40;5.60;;;0.60;99.90;;;;;;5036410;28;20804;-65
2023/03/12 05:23:30;;;;;;;6.47;5.00;;;0.60;99.90;;;;;;5036284;28;20531;-65
2023/03/12 05:25:57;;;;;;;4.87;4.43;;;0.60;99.90;;;;;;5036021;28;20456;-66
2023/03/12 05:28:26;;;;;;;8.30;5.63;;;0.50;99.90;;;;;;5036436;28;20456;-65
2023/03/12 05:30:54;;;;;;;8.40;5.10;;;0.50;99.90;;;;;;5037865;28;20464;-65
2023/03/12 05:33:23;;;;;;;9.60;5.33;;;0.50;99.90;;;;;;5038115;28;20495;-65
2023/03/12 05:35:50;;;;;;;7.33;4.97;;;0.60;99.90;;;;;;5037441;28;20460;-65
2023/03/12 05:38:17;;;;;;;4.83;4.03;;;0.50;99.90;;;;;;5036837;28;20475;-64
2023/03/12 05:40:50;;;;;;;9.30;5.70;;;0.50;99.90;;;;;;5036731;28;20466;-65
2023/03/12 05:43:17;;;;;;;6.50;5.03;;;0.50;99.90;;;;;;5035879;28;20536;-65
2023/03/12 05:45:44;;;;;;;10.53;5.60;;;0.50;99.90;;;;;;5036184;28;20466;-65
2023/03/12 05:48:11;;;;;;;6.30;5.10;;;0.50;99.90;;;;;;5035928;28;20921;-65
2023/03/12 05:50:39;;;;;;;6.73;5.30;;;0.50;99.90;;;;;;5036510;28;20518;-65
2023/03/12 05:53:08;;;;;;;8.50;5.10;;;0.50;99.90;;;;;;5036077;28;20825;-65
2023/03/12 05:55:35;;;;;;;10.70;5.40;;;0.50;99.90;;;;;;5035517;28;20498;-65
2023/03/12 05:58:02;;;;;;;7.57;4.63;;;0.50;99.90;;;;;;5036203;28;20467;-65
2023/03/12 06:00:29;;;;;;;8.07;5.00;;;0.50;99.90;;;;;;5035843;28;20856;-65
2023/03/12 06:02:56;;;;;;;12.23;5.00;;;0.60;99.90;;;;;;5035327;28;20488;-65
2023/03/12 06:05:23;;;;;;;7.13;4.43;;;0.50;99.90;;;;;;5035626;28;20456;-64
2023/03/12 06:07:52;;;;;;;8.00;4.87;;;0.60;99.90;;;;;;5035367;28;20468;-66
2023/03/12 06:10:19;;;;;;;7.87;4.30;;;0.60;99.90;;;;;;5035405;28;20464;-64
2023/03/12 06:12:46;;;;;;;7.10;5.17;;;0.60;99.90;;;;;;5035670;28;20484;-66
2023/03/12 06:15:13;;;;;;;4.53;4.13;;;0.60;99.90;;;;;;5035375;28;20579;-65
2023/03/12 06:17:40;;;;;;;8.80;4.90;;;0.60;99.90;;;;;;5036186;28;20991;-66
2023/03/12 06:20:08;;;;;;;6.17;4.13;;;0.60;99.90;;;;;;5036288;28;20984;-66
2023/03/12 06:22:36;;;;;;;9.17;4.83;;;0.60;99.90;;;;;;5036146;28;20463;-65
2023/03/12 06:25:05;;;;;;;8.77;4.20;;;0.50;99.90;;;;;;5035846;28;20482;-64
2023/03/12 06:27:32;;;;;;;4.90;4.33;;;0.60;99.90;;;;;;5035618;28;20525;-65
2023/03/12 06:29:59;;;;;;;7.07;4.60;;;0.60;99.90;;;;;;5035638;28;20925;-65
2023/03/12 06:32:26;;;;;;;5.43;4.83;;;0.50;99.90;;;;;;5035918;28;20884;-65
2023/03/12 06:34:53;;;;;;;8.80;5.03;;;0.50;99.90;;;;;;5036694;28;20546;-64
2023/03/12 06:37:20;;;;;;;7.53;4.77;;;0.50;99.90;;;;;;5036331;28;20546;-65
2023/03/12 06:39:47;;;;;;;6.43;4.90;;;0.60;99.90;;;;;;5035930;28;20458;-65
2023/03/12 06:42:16;;;;;;;6.87;4.50;;;0.70;99.90;;;;;;5036076;28;20478;-65
2023/03/12 06:44:43;;;;;;;7.00;4.90;;;0.80;99.90;;;;;;5036027;28;20460;-65
2023/03/12 06:47:10;;;;;;;7.77;4.73;;;0.70;99.90;;;;;;5036506;28;20933;-64
2023/03/12 06:49:37;;;;;;;8.93;4.70;;;0.70;99.90;;;;;;5036646;28;20992;-64
2023/03/12 06:52:05;;;;;;;6.40;5.50;;;0.70;99.90;;;;;;5036675;28;20547;-64
2023/03/12 06:54:34;;;;;;;7.37;5.40;;;0.80;99.90;;;;;;5035143;28;20479;-65
2023/03/12 06:57:00;;;;;;;6.13;4.80;;;0.90;99.90;;;;;;5035289;28;20455;-65
2023/03/12 06:59:29;;;;;;;8.33;5.23;;;1.00;99.90;;;;;;5040940;28;20484;-65
2023/03/12 07:01:56;;;;;;;8.47;4.53;;;1.00;99.90;;;;;;5040610;28;20844;-64
2023/03/12 07:04:22;;;;;;;17.77;5.67;;;1.00;99.90;;;;;;5039289;28;20444;-64
2023/03/12 07:06:50;;;;;;;7.10;4.37;;;1.00;99.90;;;;;;5040168;28;20824;-65
2023/03/12 07:09:17;;;;;;;7.80;5.27;;;1.10;99.90;;;;;;5039740;28;20494;-64
2023/03/12 07:11:44;;;;;;;8.30;5.47;;;1.20;99.90;;;;;;5039772;28;20456;-64
2023/03/12 07:14:11;;;;;;;5.63;4.40;;;1.20;99.90;;;;;;5039984;28;20492;-64
2023/03/12 07:16:39;;;;;;;5.30;4.80;;;1.30;99.90;;;;;;5040365;28;20455;-64
2023/03/12 07:19:06;;;;;;;7.80;4.93;;;1.30;99.90;;;;;;5045421;28;20498;-64
2023/03/12 07:21:33;;;;;;;10.03;5.00;;;1.40;99.90;;;;;;5062504;28;20458;-65
2023/03/12 07:24:05;;;;;;;9.83;5.60;;;1.30;99.90;;;;;;5063689;28;20935;-64
2023/03/12 07:26:32;;;;;;;6.70;4.73;;;1.40;99.90;;;;;;5064406;28;20895;-64
2023/03/12 07:28:59;;;;;;;5.50;4.67;;;1.50;99.90;;;;;;5064957;28;20538;-64
2023/03/12 07:31:26;;;;;;;6.23;4.33;;;1.50;99.90;;;;;;5063127;28;20844;-65
2023/03/12 07:33:54;;;;;;;10.50;4.70;;;1.60;99.90;;;;;;5064633;28;20485;-65
2023/03/12 07:36:21;;;;;;;6.20;4.73;;;1.60;99.90;;;;;;5064586;28;20860;-65
2023/03/12 07:38:48;;;;;;;7.17;4.30;;;1.70;99.90;;;;;;5063647;28;20455;-64
2023/03/12 07:41:15;;;;;;;11.30;4.47;;;1.70;99.90;;;;;;5063264;28;20896;-65
2023/03/12 07:43:42;;;;;;;7.60;4.50;;;1.70;99.90;;;;;;5063285;28;20477;-64
2023/03/12 07:46:09;;;;;;;8.33;5.20;;;1.70;99.90;;;;;;5062349;28;20522;-65
2023/03/12 07:48:35;;;;;;;6.47;4.87;;;1.60;99.90;;;;;;5061810;28;20790;-65
2023/03/12 07:51:04;;;;;;;7.10;4.90;;;1.70;99.90;;;;;;5059137;28;20538;-64
2023/03/12 07:53:31;;;;;;;7.57;4.50;;;1.80;99.90;;;;;;5060653;28;20467;-64
2023/03/12 07:55:58;;;;;;;11.50;5.63;;;1.80;99.90;;;;;;5058893;28;20769;-65
2023/03/12 07:58:25;;;;;;;6.47;5.30;;;1.80;99.90;;;;;;5058111;28;20536;-64
2023/03/12 08:00:52;;;;;;;12.83;5.27;;;1.80;99.90;;;;;;5058574;28;20455;-65
2023/03/12 08:03:19;;;;;;;5.60;4.50;;;1.80;99.90;;;;;;5058519;28;20532;-64
2023/03/12 08:05:56;;;;;;;10.07;4.73;;;2.00;99.90;;;;;;5058119;28;20869;-65
2023/03/12 08:08:24;;;;;;;8.70;5.03;;;2.00;99.90;;;;;;5058219;28;20817;-65
2023/03/12 08:10:51;;;;;;;5.77;4.20;;;2.10;99.90;;;;;;5057873;28;20465;-65
2023/03/12 08:13:18;;;;;;;4.37;3.60;;;2.20;99.90;;;;;;5057119;28;20515;-65
2023/03/12 08:15:45;;;;;;;9.57;4.80;;;2.20;99.90;;;;;;5057796;28;20487;-65
2023/03/12 08:18:13;;;;;;;6.20;3.60;;;2.20;99.90;;;;;;5059173;28;20447;-66
2023/03/12 08:20:40;;;;;;;4.33;3.93;;;2.30;99.90;;;;;;5058452;28;20538;-65
2023/03/12 08:23:07;;;;;;;5.00;4.13;;;2.20;99.90;;;;;;5058098;28;20452;-66
2023/03/12 08:25:36;;;;;;;6.50;4.67;;;2.30;99.90;;;;;;5057667;28;20809;-64
2023/03/12 08:28:03;;;;;;;6.80;4.37;;;2.30;99.90;;;;;;5057374;28;20455;-65
2023/03/12 08:30:30;;;;;;;9.50;4.33;;;2.40;99.90;;;;;;5056845;28;20946;-65
2023/03/12 08:32:57;;;;;;;8.37;4.93;;;2.40;99.90;;;;;;5057264;28;20549;-65
2023/03/12 08:35:24;;;;;;;3.97;3.40;;;2.50;99.90;;;;;;5057529;28;20923;-65
2023/03/12 08:37:51;;;;;;;5.17;3.60;;;2.60;99.90;;;;;;5057534;28;20470;-65
2023/03/12 08:40:18;;;;;;;5.43;3.73;;;2.70;99.90;;;;;;5057509;28;20565;-66
2023/03/12 08:42:46;;;;;;;4.60;4.03;;;2.90;99.90;;;;;;5057133;28;20459;-67
2023/03/12 08:45:14;;;;;;;4.23;2.80;;;3.00;99.90;;;;;;5057747;28;20542;-66
2023/03/12 08:47:42;;;;;;;5.80;3.43;;;3.00;99.90;;;;;;5056975;28;20455;-65
2023/03/12 08:50:11;;;;;;;3.97;3.30;;;3.10;99.90;;;;;;5056504;28;20945;-67
2023/03/12 08:52:38;;;;;;;9.60;4.03;;;3.20;99.90;;;;;;5056775;28;20465;-65
2023/03/12 08:55:06;;;;;;;5.83;3.90;;;3.20;99.90;;;;;;5056917;28;20483;-65
2023/03/12 08:57:33;;;;;;;3.07;2.77;;;3.40;99.90;;;;;;5056701;28;20529;-65
2023/03/12 09:00:03;;;;;;;6.20;3.33;;;3.50;99.90;;;;;;5046817;28;20534;-63
2023/03/12 09:02:31;;;;;;;11.00;3.80;;;3.50;99.90;;;;;;5037065;28;20471;-65
2023/03/12 09:04:58;;;;;;;6.13;3.10;;;3.50;99.90;;;;;;5037402;28;20603;-65
2023/03/12 09:07:25;;;;;;;4.43;3.37;;;3.60;99.90;;;;;;5036609;28;20462;-66
2023/03/12 09:09:54;;;;;;;3.83;3.00;;;3.50;99.90;;;;;;5036748;28;20463;-65
2023/03/12 09:12:21;;;;;;;2.93;2.67;;;3.60;99.90;;;;;;5037401;28;20456;-65
2023/03/12 09:14:47;;;;;;;4.83;3.07;;;3.60;99.90;;;;;;5037644;28;20496;-65
2023/03/12 09:17:16;;;;;;;9.80;3.30;;;3.60;99.90;;;;;;5037802;28;20491;-65
2023/03/12 09:19:42;;;;;;;5.03;2.87;;;3.60;99.90;;;;;;5037404;28;20455;-65
2023/03/12 09:22:10;;;;;;;8.00;2.93;;;3.60;99.90;;;;;;5036700;28;20975;-65
2023/03/12 09:24:36;;;;;;;4.23;2.47;;;3.60;99.90;;;;;;5037028;28;20772;-63
2023/03/12 09:27:04;;;;;;;5.90;2.80;;;3.60;99.90;;;;;;5038438;28;20923;-65
2023/03/12 09:29:31;;;;;;;4.17;2.47;;;3.60;99.90;;;;;;5036867;28;20470;-65
2023/03/12 09:31:58;;;;;;;3.77;2.13;;;3.60;99.90;;;;;;5036597;28;20492;-65
2023/03/12 09:34:27;;;;;;;6.03;2.30;;;3.60;99.90;;;;;;5037301;28;20555;-65
2023/03/12 09:36:53;;;;;;;5.20;2.23;;;3.80;99.90;;;;;;5037055;28;20931;-64
2023/03/12 09:39:21;;;;;;;5.13;2.37;;;4.00;99.90;;;;;;5037383;28;20487;-65
2023/03/12 09:41:49;;;;;;;3.10;2.43;;;4.10;99.90;;;;;;5038603;28;20487;-65
2023/03/12 09:44:22;;;;;;;2.73;1.90;;;4.20;99.90;;;;;;5038088;28;20463;-65
2023/03/12 09:46:52;;;;;;;2.73;2.03;;;4.30;99.90;;;;;;5038295;28;20815;-65
2023/03/12 09:49:30;;;;;;;4.20;1.70;;;4.40;99.90;;;;;;5038614;28;20444;-65
2023/03/12 09:51:59;;;;;;;3.47;2.30;;;4.40;99.90;;;;;;5038272;28;20440;-66
2023/03/12 09:54:32;;;;;;;3.50;2.20;;;4.50;99.90;;;;;;5038668;28;20511;-65
2023/03/12 09:57:03;;;;;;;2.83;1.63;;;4.50;99.90;;;;;;5039188;28;20482;-65
2023/03/12 09:59:30;;;;;;;3.77;2.00;;;4.40;99.90;;;;;;5040028;28;20448;-65
2023/03/12 10:02:01;;;;;;;6.70;2.03;;;4.50;99.90;;;;;;5038655;28;20482;-66
2023/03/12 10:04:41;;;;;;;5.40;2.00;;;4.80;99.90;;;;;;5037122;28;20542;-66
2023/03/12 10:07:15;;;;;;;7.33;2.10;;;5.00;99.90;;;;;;5037430;28;20539;-66
2023/03/12 10:10:03;;;;;;;3.80;2.10;;;5.10;99.90;;;;;;5037531;28;20519;-64
2023/03/12 10:12:40;;;;;;;6.30;2.30;;;5.20;99.90;;;;;;5037361;28;20440;-65
2023/03/12 10:15:17;;;;;;;4.63;2.37;;;5.30;99.90;;;;;;5038859;28;20523;-66
2023/03/12 10:17:56;;;;;;;2.90;2.20;;;5.30;99.90;;;;;;5039329;28;20924;-65
2023/03/12 10:20:50;;;;;;;3.53;2.40;;;5.40;99.90;;;;;;5037849;28;20444;-64
2023/03/12 10:23:34;;;;;;;4.40;2.43;;;5.70;99.90;;;;;;5036887;28;20897;-65
2023/03/12 10:26:07;;;;;;;4.73;1.80;;;5.80;99.90;;;;;;5036553;28;20895;-66
2023/03/12 10:28:39;;;;;;;2.60;1.93;;;5.90;99.90;;;;;;5036464;28;20462;-65
2023/03/12 10:31:13;;;;;;;6.17;2.20;;;5.90;99.90;;;;;;5037390;28;20789;-65
2023/03/12 10:33:46;;;;;;;8.73;2.70;;;6.00;99.90;;;;;;5036835;28;20468;-65
2023/03/12 10:36:17;;;;;;;2.83;1.90;;;6.00;99.90;;;;;;5036567;28;20543;-64
2023/03/12 10:38:44;;;;;;;6.20;2.00;;;6.20;99.90;;;;;;5036572;28;20472;-66
2023/03/12 10:41:14;;;;;;;2.90;1.80;;;6.20;99.90;;;;;;5035928;28;20456;-64
2023/03/12 10:43:41;;;;;;;4.03;1.77;;;6.30;99.90;;;;;;5035882;28;20859;-65
2023/03/12 10:46:31;;;;;;;4.10;1.80;;;6.40;99.90;;;;;;5036247;28;20770;-66
2023/03/12 10:49:29;;;;;;;2.47;1.70;;;6.20;99.90;;;;;;5036410;28;20455;-65
2023/03/12 10:52:00;;;;;;;3.30;2.33;;;6.40;99.90;;;;;;5036181;28;20450;-65
2023/03/12 10:54:33;;;;;;;2.87;1.90;;;6.50;99.90;;;;;;5037138;28;20534;-65
2023/03/12 10:57:00;;;;;;;5.10;2.00;;;6.40;99.90;;;;;;5039416;28;20444;-65
2023/03/12 10:59:31;;;;;;;4.70;1.90;;;6.30;99.90;;;;;;5040082;28;20908;-64
2023/03/12 11:01:58;;;;;;;6.27;1.80;;;6.30;99.90;;;;;;5040493;28;20793;-65
2023/03/12 11:04:26;;;;;;;5.73;1.57;;;6.30;99.90;;;;;;5040700;28;20452;-65
2023/03/12 11:07:07;;;;;;;2.70;1.50;;;6.50;99.90;;;;;;5040606;28;20470;-65
2023/03/12 11:09:34;;;;;;;7.33;2.10;;;6.60;99.90;;;;;;5040360;28;20984;-65
2023/03/12 11:12:01;;;;;;;3.47;1.63;;;6.70;99.90;;;;;;5040257;28;20599;-65
2023/03/12 11:14:29;;;;;;;3.60;1.73;;;6.90;99.90;;;;;;5039865;28;20484;-65
2023/03/12 11:17:16;;;;;;;2.67;1.30;;;6.90;99.90;;;;;;5040109;28;20857;-65
2023/03/12 11:19:43;;;;;;;3.93;1.27;;;6.90;99.90;;;;;;5039325;28;20612;-65
2023/03/12 11:22:14;;;;;;;2.90;1.50;;;6.80;99.90;;;;;;5040070;28;20464;-64
2023/03/12 11:24:56;;;;;;;2.10;1.50;;;6.80;99.90;;;;;;5039749;28;20440;-65
2023/03/12 11:27:32;;;;;;;5.70;1.60;;;6.80;99.90;;;;;;5039202;28;20528;-65
2023/03/12 11:30:00;;;;;;;2.37;1.70;;;7.00;99.90;;;;;;5039274;28;20444;-66
2023/03/12 11:32:31;;;;;;;5.40;1.73;;;7.10;99.90;;;;;;5039070;28;20538;-66
2023/03/12 11:34:58;;;;;;;2.37;1.70;;;7.20;99.90;;;;;;5039081;28;20861;-65
2023/03/12 11:37:41;;;;;;;2.60;1.47;;;7.20;99.90;;;;;;5038605;28;20491;-65
2023/03/12 11:40:18;;;;;;;3.00;1.90;;;7.30;99.90;;;;;;5038711;28;20454;-66
2023/03/12 11:43:07;;;;;;;6.47;2.57;;;7.30;99.90;;;;;;5038487;28;20523;-65
2023/03/12 11:45:44;;;;;;;2.33;2.00;;;7.40;99.90;;;;;;5026516;28;20536;-65
2023/03/12 11:48:22;;;;;;;3.40;2.63;;;7.50;99.90;;;;;;5039497;28;20517;-64
2023/03/12 11:51:02;;;;;;;4.77;2.20;;;7.60;99.90;;;;;;5043568;28;20451;-60
2023/03/12 11:53:49;;;;;;;9.20;2.93;;;7.50;99.90;;;;;;5045750;28;20468;-62
2023/03/12 11:56:27;;;;;;;3.57;2.50;;;7.40;99.90;;;;;;5046151;28;20464;-62
2023/03/12 11:59:12;;;;;;;2.93;2.57;;;7.30;99.90;;;;;;5039225;28;20467;-59
2023/03/12 12:01:53;;;;;;;2.47;2.27;;;7.30;99.90;;;;;;5040300;28;20455;-61
2023/03/12 12:04:59;;;;;;;2.90;2.70;;;7.30;99.90;;;;;;5039273;28;20483;-61
2023/03/12 12:07:39;;;;;;;5.50;2.77;;;7.50;99.90;;;;;;5038676;28;20439;-60
2023/03/12 12:10:20;;;;;;;4.57;2.67;;;7.60;99.90;;;;;;5039483;28;20471;-61
2023/03/12 12:12:57;;;;;;;3.30;2.30;;;7.50;98.20;;;;;;5039875;28;20472;-59
2023/03/12 12:15:33;;;;;;;8.43;3.03;;;7.40;97.90;;;;;;5038977;28;20575;-60
2023/03/12 12:18:15;;;;;;;6.73;2.87;;;7.10;98.40;;;;;;5039200;28;20448;-60
2023/03/12 12:20:48;;;;;;;4.43;2.80;;;7.10;98.20;;;;;;5039708;28;20495;-59
2023/03/12 12:23:17;;;;;;;8.03;3.17;;;7.10;97.30;;;;;;5039382;28;20901;-61
2023/03/12 12:26:07;;;;;;;5.67;3.03;;;7.30;97.90;;;;;;5038777;28;20451;-60
2023/03/12 12:29:04;;;;;;;6.13;3.00;;;7.50;97.50;;;;;;5039635;28;20444;-60
2023/03/12 12:31:41;;;;;;;4.10;2.63;;;7.60;96.20;;;;;;5039817;28;20897;-60
2023/03/12 12:34:52;;;;;;;3.40;2.60;;;7.50;94.50;;;;;;5039345;28;20771;-60
2023/03/12 12:37:35;;;;;;;5.00;2.30;;;7.50;95.30;;;;;;5038941;28;20940;-61
2023/03/12 12:40:12;;;;;;;2.30;2.10;;;7.70;91.40;;;;;;5038862;28;20900;-61
2023/03/12 12:42:53;;;;;;;3.90;2.50;;;7.60;86.60;;;;;;5039502;28;20459;-59
2023/03/12 12:45:21;;;;;;;2.83;2.37;;;7.40;84.80;;;;;;5039269;28;20519;-61
2023/03/12 12:47:54;;;;;;;3.37;2.63;;;7.40;87.20;;;;;;5038799;28;20452;-61
2023/03/12 12:50:24;;;;;;;2.70;2.20;;;7.40;75.50;;;;;;5037474;28;20527;-61
2023/03/12 12:52:57;;;;;;;3.10;1.93;;;7.30;63.20;;;;;;5037312;28;20464;-61
2023/03/12 12:55:28;;;;;;;3.80;2.10;;;7.30;61.90;;;;;;5036930;28;20554;-64
2023/03/12 12:58:00;;;;;;;2.70;2.50;;;7.40;59.40;;;;;;5037467;28;20444;-65
2023/03/12 13:00:39;;;;;;;2.90;2.50;;;7.30;60.70;;;;;;5037231;28;20452;-65
2023/03/12 13:03:11;;;;;;;2.87;2.17;;;7.50;61.70;;;;;;5036619;28;20509;-65
2023/03/12 13:05:46;;;;;;;3.50;1.80;;;7.50;59.10;;;;;;5036459;28;20451;-64
2023/03/12 13:08:46;;;;;;;4.10;2.93;;;7.40;55.00;;;;;;5035951;28;20976;-65
2023/03/12 13:11:25;;;;;;;6.10;2.30;;;7.40;56.90;;;;;;5036322;28;20452;-64